createdAt,value
2022-10-05T00:01:35.450Z,8.27
2022-10-05T00:04:16.470Z,7.67
2022-10-05T00:06:45.913Z,7.37
2022-10-05T00:09:17.079Z,7.67
2022-10-05T00:11:44.990Z,8.23
2022-10-05T00:14:23.814Z,6.83
2022-10-05T00:16:51.036Z,7.30
2022-10-05T00:19:33.212Z,6.73
2022-10-05T00:22:09.811Z,7.13
2022-10-05T00:24:36.600Z,7.60
2022-10-05T00:27:21.894Z,7.00
2022-10-05T00:29:50.148Z,7.10
2022-10-05T00:32:16.728Z,6.57
2022-10-05T00:34:45.176Z,7.40
2022-10-05T00:37:13.801Z,6.53
2022-10-05T00:39:40.821Z,6.47
2022-10-05T00:42:31.587Z,6.00
2022-10-05T00:45:15.933Z,5.20
2022-10-05T00:47:57.518Z,4.33
2022-10-05T00:50:40.682Z,4.20
2022-10-05T00:53:33.239Z,4.37
2022-10-05T00:56:05.972Z,4.10
2022-10-05T00:58:38.746Z,3.87
2022-10-05T01:01:12.806Z,3.60
2022-10-05T01:07:43.372Z,3.80
2022-10-05T01:10:21.762Z,3.70
2022-10-05T01:13:10.118Z,3.87
2022-10-05T01:15:45.117Z,3.80
2022-10-05T01:18:39.581Z,3.23
2022-10-05T01:21:11.679Z,3.43
2022-10-05T01:23:56.662Z,3.17
2022-10-05T01:26:48.326Z,3.43
2022-10-05T01:29:34.025Z,3.53
2022-10-05T01:32:25.963Z,3.17
2022-10-05T01:35:14.647Z,3.40
2022-10-05T01:37:44.357Z,3.23
2022-10-05T01:40:34.492Z,3.40
2022-10-05T01:43:12.419Z,3.27
2022-10-05T01:45:57.729Z,3.07
2022-10-05T01:48:27.227Z,3.23
2022-10-05T01:51:22.357Z,3.50
2022-10-05T01:54:06.918Z,3.47
2022-10-05T01:57:00.679Z,3.40
2022-10-05T01:59:29.878Z,3.70
2022-10-05T02:02:08.004Z,3.57
2022-10-05T02:05:03.458Z,3.33
2022-10-05T02:07:56.226Z,3.43
2022-10-05T02:10:37.436Z,3.50
2022-10-05T02:13:14.474Z,3.57
2022-10-05T02:15:46.622Z,3.20
2022-10-05T02:18:23.831Z,3.33
2022-10-05T02:20:52.966Z,3.17
2022-10-05T02:23:25.521Z,3.13
2022-10-05T02:25:55.442Z,3.10
2022-10-05T02:28:36.460Z,3.30
2022-10-05T02:31:12.725Z,3.30
2022-10-05T02:33:39.452Z,3.10
2022-10-05T02:36:33.377Z,3.50
2022-10-05T02:39:20.482Z,3.40
2022-10-05T02:42:31.996Z,3.67
2022-10-05T02:45:19.303Z,3.10
2022-10-05T02:48:02.678Z,3.17
2022-10-05T02:50:51.273Z,3.87
2022-10-05T02:53:24.911Z,4.00
2022-10-05T02:56:12.758Z,3.97
2022-10-05T02:58:53.476Z,3.60
2022-10-05T03:01:37.901Z,3.30
2022-10-05T03:04:26.000Z,3.30
2022-10-05T03:07:27.844Z,3.53
2022-10-05T03:10:02.162Z,3.93
2022-10-05T03:12:34.859Z,3.90
2022-10-05T03:15:10.612Z,4.13
2022-10-05T03:17:57.554Z,4.40
2022-10-05T03:20:43.336Z,4.10
2022-10-05T03:23:35.990Z,4.23
2022-10-05T03:26:12.384Z,4.07
2022-10-05T03:29:00.472Z,5.17
2022-10-05T03:31:53.081Z,5.20
2022-10-05T03:35:00.326Z,5.27
2022-10-05T03:37:44.975Z,5.17
2022-10-05T03:40:35.062Z,4.73
2022-10-05T03:43:48.438Z,4.43
2022-10-05T03:46:39.138Z,4.67
2022-10-05T03:49:32.004Z,5.40
2022-10-05T03:52:09.960Z,5.03
2022-10-05T03:54:42.290Z,5.23
2022-10-05T03:57:15.886Z,5.37
2022-10-05T03:59:50.601Z,5.70
2022-10-05T04:02:25.253Z,5.47
2022-10-05T04:05:09.167Z,6.90
2022-10-05T04:07:52.325Z,6.53
2022-10-05T04:10:30.826Z,7.10
2022-10-05T04:13:13.249Z,7.70
2022-10-05T04:15:50.461Z,7.43
2022-10-05T04:18:34.388Z,7.90
2022-10-05T04:21:32.482Z,8.10
2022-10-05T04:24:10.378Z,7.80
2022-10-05T04:26:52.653Z,7.57
2022-10-05T04:29:41.219Z,7.13
2022-10-05T04:32:37.720Z,7.20
2022-10-05T04:35:10.302Z,7.80
2022-10-05T04:38:14.175Z,7.17
2022-10-05T04:41:29.011Z,6.93
2022-10-05T04:44:43.947Z,7.57
2022-10-05T04:47:28.722Z,6.60
2022-10-05T04:49:58.163Z,7.33
2022-10-05T04:52:31.904Z,6.77
2022-10-05T04:55:16.424Z,7.30
2022-10-05T04:58:10.909Z,6.20
2022-10-05T05:00:55.851Z,6.60
2022-10-05T05:03:39.270Z,6.70
2022-10-05T05:06:18.486Z,7.13
2022-10-05T05:09:19.044Z,7.00
2022-10-05T05:12:03.797Z,6.80
2022-10-05T05:14:49.065Z,6.27
2022-10-05T05:17:39.961Z,6.63
2022-10-05T05:20:09.777Z,6.27
2022-10-05T05:23:02.526Z,6.10
2022-10-05T05:26:01.712Z,6.10
2022-10-05T05:28:40.008Z,6.23
2022-10-05T05:31:41.810Z,6.67
2022-10-05T05:34:23.864Z,5.93
2022-10-05T05:37:18.036Z,5.73
2022-10-05T05:40:03.206Z,5.30
2022-10-05T05:42:58.900Z,6.13
2022-10-05T05:45:42.122Z,6.37
2022-10-05T05:48:38.853Z,5.77
2022-10-05T05:51:16.329Z,5.60
2022-10-05T05:53:46.994Z,6.17
2022-10-05T05:56:32.541Z,5.60
2022-10-05T05:59:12.808Z,5.60
2022-10-05T06:01:45.134Z,5.90
2022-10-05T06:04:35.871Z,5.40
2022-10-05T06:07:05.071Z,5.40
2022-10-05T06:09:49.854Z,5.87
2022-10-05T06:12:37.598Z,5.27
2022-10-05T06:15:24.966Z,5.50
2022-10-05T06:17:56.441Z,5.33
2022-10-05T06:20:51.994Z,4.67
2022-10-05T06:23:25.277Z,4.90
2022-10-05T06:26:27.378Z,4.83
2022-10-05T06:29:02.501Z,5.33
2022-10-05T06:32:04.282Z,5.30
2022-10-05T06:34:44.412Z,5.43
2022-10-05T06:37:44.519Z,5.60
2022-10-05T06:40:49.416Z,6.17
2022-10-05T06:43:30.804Z,6.10
2022-10-05T06:46:07.346Z,6.33
2022-10-05T06:49:03.193Z,6.87
2022-10-05T06:51:51.431Z,7.77
2022-10-05T06:54:50.937Z,7.40
2022-10-05T06:57:55.004Z,7.80
2022-10-05T07:00:27.308Z,8.23
2022-10-05T07:03:17.618Z,8.87
2022-10-05T07:06:12.146Z,8.90
2022-10-05T07:08:47.837Z,8.40
2022-10-05T07:11:40.048Z,8.37
2022-10-05T07:14:21.549Z,8.83
2022-10-05T07:16:51.295Z,6.90
2022-10-05T07:19:46.140Z,7.23
2022-10-05T07:22:37.939Z,8.03
2022-10-05T07:25:18.030Z,7.23
2022-10-05T07:28:12.897Z,7.13
2022-10-05T07:31:16.578Z,6.90
2022-10-05T07:33:53.252Z,6.60
2022-10-05T07:36:58.557Z,6.63
2022-10-05T07:40:06.546Z,6.57
2022-10-05T07:42:51.499Z,5.63
2022-10-05T07:45:30.707Z,4.97
2022-10-05T07:48:12.258Z,5.43
2022-10-05T07:50:52.540Z,5.10
2022-10-05T07:53:26.175Z,5.03
2022-10-05T07:55:55.959Z,4.60
2022-10-05T07:58:29.492Z,5.37
2022-10-05T08:01:02.269Z,5.37
2022-10-05T08:04:00.333Z,5.43
2022-10-05T08:06:45.625Z,5.27
2022-10-05T08:09:55.634Z,4.60
2022-10-05T08:12:27.895Z,4.40
2022-10-05T08:15:20.691Z,3.07
2022-10-05T08:17:54.273Z,2.60
2022-10-05T08:20:46.527Z,2.70
2022-10-05T08:23:21.149Z,2.97
2022-10-05T08:25:55.477Z,3.13
2022-10-05T08:28:35.654Z,3.80
2022-10-05T08:31:09.223Z,3.30
2022-10-05T08:34:13.533Z,3.50
2022-10-05T08:36:40.020Z,4.07
2022-10-05T08:39:16.168Z,6.03
2022-10-05T08:42:01.500Z,4.10
2022-10-05T08:44:47.796Z,4.00
2022-10-05T08:47:40.579Z,3.93
2022-10-05T08:50:45.592Z,3.97
2022-10-05T08:53:20.072Z,4.40
2022-10-05T08:55:58.548Z,5.10
2022-10-05T08:58:53.745Z,5.23
2022-10-05T09:01:56.114Z,4.90
2022-10-05T09:04:34.298Z,5.37
2022-10-05T09:07:08.630Z,4.30
2022-10-05T09:09:43.390Z,4.60
2022-10-05T09:12:48.979Z,4.70
2022-10-05T09:15:26.265Z,4.80
2022-10-05T09:18:12.314Z,5.40
2022-10-05T09:20:55.156Z,5.60
2022-10-05T09:23:40.331Z,5.63
2022-10-05T09:26:28.665Z,5.70
2022-10-05T09:28:57.851Z,5.33
2022-10-05T09:31:33.489Z,5.70
2022-10-05T09:34:26.183Z,5.80
2022-10-05T09:37:19.847Z,6.57
2022-10-05T09:40:17.050Z,6.40
2022-10-05T09:43:18.490Z,6.60
2022-10-05T09:46:22.575Z,6.80
2022-10-05T09:49:13.670Z,6.33
2022-10-05T09:51:46.913Z,6.80
2022-10-05T09:54:28.885Z,7.07
2022-10-05T09:57:23.070Z,7.27
2022-10-05T10:00:15.747Z,7.20
2022-10-05T10:03:04.981Z,7.30
2022-10-05T10:05:34.339Z,7.30
2022-10-05T10:08:12.064Z,6.17
2022-10-05T10:11:05.042Z,7.57
2022-10-05T10:13:53.554Z,6.67
2022-10-05T10:16:32.590Z,6.87
2022-10-05T10:19:36.680Z,6.87
2022-10-05T10:22:16.298Z,6.53
2022-10-05T10:25:01.070Z,6.27
2022-10-05T10:28:14.710Z,5.83
2022-10-05T10:30:56.300Z,5.73
2022-10-05T10:33:51.198Z,5.33
2022-10-05T10:36:34.009Z,5.60
2022-10-05T10:39:34.700Z,5.50
2022-10-05T10:42:16.690Z,5.40
2022-10-05T10:45:08.813Z,4.93
2022-10-05T10:48:01.147Z,5.30
2022-10-05T10:51:12.989Z,6.00
2022-10-05T10:54:03.886Z,5.37
2022-10-05T10:56:42.319Z,5.27
2022-10-05T10:59:53.788Z,5.40
2022-10-05T11:02:50.012Z,5.80
2022-10-05T11:06:10.014Z,6.00
2022-10-05T11:08:58.072Z,6.77
2022-10-05T11:11:51.309Z,5.60
2022-10-05T11:14:39.969Z,6.70
2022-10-05T11:17:31.713Z,6.03
2022-10-05T11:20:16.450Z,6.40
2022-10-05T11:22:52.019Z,6.03
2022-10-05T11:25:49.049Z,6.20
2022-10-05T11:28:27.442Z,5.23
2022-10-05T11:31:21.725Z,5.30
2022-10-05T11:34:24.055Z,4.93
2022-10-05T11:36:59.632Z,5.47
2022-10-05T11:39:30.783Z,5.63
2022-10-05T11:42:00.430Z,5.13
2022-10-05T11:48:41.838Z,6.13
2022-10-05T11:51:30.710Z,5.20
2022-10-05T11:54:17.536Z,5.63
2022-10-05T11:57:09.403Z,5.10
2022-10-05T11:59:49.184Z,5.47
2022-10-05T12:02:34.458Z,5.93
2022-10-05T12:05:40.131Z,5.43
2022-10-05T12:08:23.414Z,5.20
2022-10-05T12:11:07.969Z,4.87
2022-10-05T12:13:56.222Z,5.30
2022-10-05T12:16:36.460Z,5.03
2022-10-05T12:19:36.511Z,5.30
2022-10-05T12:22:18.130Z,4.70
2022-10-05T12:25:12.416Z,4.07
2022-10-05T12:27:42.773Z,3.87
2022-10-05T12:30:14.903Z,4.30
2022-10-05T12:32:47.705Z,25.53
2022-10-05T12:35:46.760Z,4.13
2022-10-05T12:38:16.122Z,3.93
2022-10-05T12:40:56.877Z,3.73
2022-10-05T12:43:37.201Z,3.67
2022-10-05T12:46:24.010Z,4.20
2022-10-05T12:49:21.201Z,3.27
2022-10-05T12:51:59.999Z,3.70
2022-10-05T12:54:42.364Z,3.23
2022-10-05T12:57:08.957Z,4.80
2022-10-05T12:59:59.607Z,3.80
2022-10-05T13:02:46.714Z,2.97
2022-10-05T13:05:25.338Z,3.70
2022-10-05T13:07:51.972Z,4.13
2022-10-05T13:11:01.882Z,3.93
2022-10-05T13:13:56.390Z,3.00
2022-10-05T13:16:25.938Z,2.87
2022-10-05T13:19:19.538Z,3.28
2022-10-05T13:21:55.630Z,2.70
2022-10-05T13:24:31.368Z,3.00
2022-10-05T13:27:14.847Z,2.73
2022-10-05T13:30:02.828Z,3.10
2022-10-05T13:32:36.660Z,2.90
2022-10-05T13:35:35.511Z,2.70
2022-10-05T13:38:38.509Z,2.83
2022-10-05T13:41:24.694Z,2.60
2022-10-05T13:44:12.331Z,3.00
2022-10-05T13:47:17.803Z,2.92
2022-10-05T13:49:57.162Z,3.23
2022-10-05T13:52:46.969Z,2.40
2022-10-05T13:55:33.273Z,2.88
2022-10-05T13:58:13.226Z,2.83
2022-10-05T14:01:08.823Z,2.50
2022-10-05T14:03:38.086Z,3.40
2022-10-05T14:06:14.116Z,2.80
2022-10-05T14:09:03.196Z,2.30
2022-10-05T14:11:35.457Z,2.00
2022-10-05T14:14:10.743Z,2.17
2022-10-05T14:16:56.271Z,2.20
2022-10-05T14:19:28.184Z,2.40
2022-10-05T14:22:24.613Z,2.30
2022-10-05T14:24:55.134Z,2.60
2022-10-05T14:27:23.871Z,2.50
2022-10-05T14:30:17.181Z,2.87
2022-10-05T14:32:51.439Z,2.57
2022-10-05T14:35:22.108Z,2.57
2022-10-05T14:38:01.613Z,2.30
2022-10-05T14:40:34.809Z,1.97
2022-10-05T14:43:30.936Z,2.47
2022-10-05T14:46:01.656Z,2.50
2022-10-05T14:48:38.534Z,2.33
2022-10-05T14:51:11.270Z,2.87
2022-10-05T14:53:39.430Z,5.10
2022-10-05T14:56:25.034Z,2.87
2022-10-05T14:58:57.681Z,1.80
2022-10-05T15:01:32.925Z,2.10
2022-10-05T15:04:21.204Z,2.10
2022-10-05T15:07:04.283Z,3.30
2022-10-05T15:09:40.194Z,2.40
2022-10-05T15:12:08.415Z,2.50
2022-10-05T15:14:42.979Z,2.93
2022-10-05T15:17:20.342Z,1.83
2022-10-05T15:20:28.492Z,1.92
2022-10-05T15:23:30.702Z,2.30
2022-10-05T15:26:07.760Z,1.95
2022-10-05T15:28:48.483Z,2.08
2022-10-05T15:31:51.820Z,1.83
2022-10-05T15:34:49.246Z,1.70
2022-10-05T15:37:22.032Z,1.50
2022-10-05T15:40:02.071Z,1.70
2022-10-05T15:42:41.207Z,1.83
2022-10-05T15:45:32.750Z,1.50
2022-10-05T15:48:19.883Z,1.50
2022-10-05T15:50:50.725Z,1.67
2022-10-05T15:53:24.070Z,2.03
2022-10-05T15:55:54.735Z,1.50
2022-10-05T15:58:31.395Z,1.80
2022-10-05T16:01:24.700Z,1.80
2022-10-05T16:04:01.590Z,1.95
2022-10-05T16:06:52.972Z,1.95
2022-10-05T16:09:46.863Z,2.28
2022-10-05T16:12:22.203Z,18.98
2022-10-05T16:14:59.812Z,9.45
2022-10-05T16:17:35.568Z,4.40
2022-10-05T16:20:20.774Z,5.90
2022-10-05T16:23:25.225Z,4.18
2022-10-05T16:26:14.669Z,2.58
2022-10-05T16:28:56.361Z,2.50
2022-10-05T16:31:37.488Z,2.40
2022-10-05T16:34:41.245Z,2.70
2022-10-05T16:37:58.439Z,2.27
2022-10-05T16:40:50.989Z,2.17
2022-10-05T16:43:28.983Z,2.17
2022-10-05T16:46:12.740Z,2.40
2022-10-05T16:48:48.334Z,3.50
2022-10-05T16:51:21.462Z,3.10
2022-10-05T16:54:06.898Z,3.90
2022-10-05T16:56:43.576Z,2.83
2022-10-05T16:59:28.467Z,2.57
2022-10-05T17:02:07.343Z,2.80
2022-10-05T17:04:44.823Z,2.67
2022-10-05T17:07:37.699Z,2.37
2022-10-05T17:10:13.023Z,4.17
2022-10-05T17:12:45.680Z,2.80
2022-10-05T17:15:15.210Z,2.47
2022-10-05T17:18:07.033Z,2.97
2022-10-05T17:20:42.617Z,2.60
2022-10-05T17:23:37.731Z,2.67
2022-10-05T17:26:33.680Z,2.77
2022-10-05T17:29:09.242Z,2.67
2022-10-05T17:32:06.877Z,2.30
2022-10-05T17:34:36.498Z,2.37
2022-10-05T17:37:37.967Z,5.50
2022-10-05T17:40:33.776Z,2.60
2022-10-05T17:43:05.518Z,2.37
2022-10-05T17:45:32.047Z,2.60
2022-10-05T17:48:04.358Z,2.27
2022-10-05T17:51:07.396Z,2.50
2022-10-05T17:53:52.796Z,2.17
2022-10-05T17:56:23.192Z,2.70
2022-10-05T17:58:55.714Z,2.50
2022-10-05T18:01:36.064Z,2.80
2022-10-05T18:04:11.877Z,2.80
2022-10-05T18:06:39.221Z,3.00
2022-10-05T18:09:17.239Z,2.90
2022-10-05T18:11:49.250Z,3.10
2022-10-05T18:14:20.047Z,3.03
2022-10-05T18:17:04.698Z,2.83
2022-10-05T18:19:32.671Z,2.90
2022-10-05T18:22:03.574Z,2.63
2022-10-05T18:24:39.003Z,2.90
2022-10-05T18:27:05.588Z,3.33
2022-10-05T18:30:13.369Z,2.77
2022-10-05T18:32:51.324Z,2.63
2022-10-05T18:35:33.169Z,2.80
2022-10-05T18:38:22.513Z,2.80
2022-10-05T18:41:01.913Z,2.73
2022-10-05T18:43:48.000Z,2.77
2022-10-05T18:46:42.563Z,2.63
2022-10-05T18:49:36.697Z,2.73
2022-10-05T18:52:20.611Z,2.70
2022-10-05T18:55:02.633Z,2.90
2022-10-05T18:57:56.904Z,2.40
2022-10-05T19:00:24.851Z,2.43
2022-10-05T19:02:57.861Z,2.33
2022-10-05T19:05:48.918Z,2.90
2022-10-05T19:08:32.102Z,2.93
2022-10-05T19:11:23.061Z,2.63
2022-10-05T19:14:09.394Z,2.83
2022-10-05T19:16:50.849Z,3.40
2022-10-05T19:19:32.368Z,2.50
2022-10-05T19:22:47.769Z,2.83
2022-10-05T19:25:37.832Z,2.83
2022-10-05T19:28:17.509Z,2.80
2022-10-05T19:31:03.579Z,2.80
2022-10-05T19:34:04.083Z,3.17
2022-10-05T19:36:49.588Z,3.03
2022-10-05T19:39:55.598Z,2.80
2022-10-05T19:42:40.715Z,2.43
2022-10-05T19:45:13.163Z,2.67
2022-10-05T19:47:56.809Z,2.27
2022-10-05T19:50:23.368Z,2.73
2022-10-05T19:52:57.284Z,2.83
2022-10-05T19:55:35.051Z,2.10
2022-10-05T19:58:01.862Z,2.60
2022-10-05T20:00:33.959Z,2.57
2022-10-05T20:03:17.565Z,2.87
2022-10-05T20:05:44.246Z,2.80
2022-10-05T20:08:18.942Z,2.70
2022-10-05T20:11:03.837Z,2.47
2022-10-05T20:13:33.535Z,2.70
2022-10-05T20:16:35.066Z,3.20
2022-10-05T20:19:44.058Z,2.40
2022-10-05T20:22:23.799Z,2.63
2022-10-05T20:24:53.142Z,2.60
2022-10-05T20:27:49.133Z,2.27
2022-10-05T20:30:18.674Z,2.27
2022-10-05T20:32:58.120Z,2.87
2022-10-05T20:35:27.890Z,2.60
2022-10-05T20:37:59.439Z,2.70
2022-10-05T20:40:30.214Z,2.90
2022-10-05T20:42:57.878Z,3.00
2022-10-05T20:45:24.620Z,2.90
2022-10-05T20:47:51.279Z,2.70
2022-10-05T20:50:18.393Z,3.07
2022-10-05T20:52:45.057Z,2.80
2022-10-05T20:55:12.587Z,3.23
2022-10-05T20:57:42.263Z,3.30
2022-10-05T21:00:10.377Z,3.20
2022-10-05T21:02:38.261Z,3.17
2022-10-05T21:05:05.610Z,3.03
2022-10-05T21:07:34.253Z,2.70
2022-10-05T21:10:02.374Z,3.00
2022-10-05T21:12:28.927Z,3.40
2022-10-05T21:14:55.517Z,3.13
2022-10-05T21:17:22.058Z,3.07
2022-10-05T21:19:48.611Z,3.00
2022-10-05T21:22:15.214Z,3.00
2022-10-05T21:24:41.886Z,2.97
2022-10-05T21:27:08.549Z,3.23
2022-10-05T21:29:36.530Z,2.90
2022-10-05T21:32:03.963Z,3.17
2022-10-05T21:34:30.530Z,3.33
2022-10-05T21:36:57.046Z,3.20
2022-10-05T21:39:24.903Z,3.07
2022-10-05T21:41:51.515Z,3.30
2022-10-05T21:44:18.332Z,3.77
2022-10-05T21:46:45.539Z,3.20
2022-10-05T21:49:15.048Z,3.30
2022-10-05T21:51:44.815Z,3.20
2022-10-05T21:54:16.877Z,2.80
2022-10-05T21:56:48.397Z,3.20
2022-10-05T21:59:16.780Z,4.63
2022-10-05T22:01:43.335Z,3.40
2022-10-05T22:04:09.954Z,3.23
2022-10-05T22:06:36.907Z,3.33
2022-10-05T22:09:05.090Z,3.23
2022-10-05T22:11:33.166Z,3.80
2022-10-05T22:14:02.807Z,3.10
2022-10-05T22:16:36.692Z,3.80
2022-10-05T22:19:06.149Z,3.40
2022-10-05T22:21:38.044Z,3.90
2022-10-05T22:24:05.116Z,3.63
2022-10-05T22:26:31.913Z,3.50
2022-10-05T22:28:58.903Z,3.67
2022-10-05T22:31:25.555Z,4.10
2022-10-05T22:33:52.215Z,3.90
2022-10-05T22:36:19.920Z,3.90
2022-10-05T22:38:49.377Z,3.90
2022-10-05T22:41:18.410Z,3.73
2022-10-05T22:43:48.814Z,3.77
2022-10-05T22:46:16.034Z,3.43
2022-10-05T22:48:43.230Z,4.20
2022-10-05T22:51:10.540Z,3.30
2022-10-05T22:53:37.834Z,3.70
2022-10-05T22:56:06.513Z,4.03
2022-10-05T22:58:33.339Z,4.13
2022-10-05T23:01:02.334Z,4.07
2022-10-05T23:03:29.244Z,4.10
2022-10-05T23:05:57.830Z,4.03
2022-10-05T23:08:24.719Z,4.20
2022-10-05T23:10:52.556Z,4.20
2022-10-05T23:13:19.266Z,4.70
2022-10-05T23:15:45.805Z,4.17
2022-10-05T23:18:12.513Z,4.27
2022-10-05T23:20:40.428Z,4.83
2022-10-05T23:23:06.967Z,4.50
2022-10-05T23:25:33.606Z,5.17
2022-10-05T23:28:02.012Z,5.10
2022-10-05T23:30:28.573Z,4.83
2022-10-05T23:32:55.611Z,4.60
2022-10-05T23:35:22.764Z,5.50
2022-10-05T23:37:49.381Z,5.23
2022-10-05T23:40:16.048Z,5.03
2022-10-05T23:42:42.778Z,5.23
2022-10-05T23:45:11.073Z,4.67
2022-10-05T23:47:38.625Z,4.83
2022-10-05T23:50:07.246Z,5.27
2022-10-05T23:52:35.354Z,5.57
2022-10-05T23:55:05.631Z,5.40
2022-10-05T23:57:32.785Z,4.90
